Terminal Aerodrome Forecast
Issued by NWS

Home | Current Version | Previous Version | Text Only | Print | Product List | Glossary On
Versions: 1 2 3 4 5 6 7 8 9 10 11 12 13
252
FTUS45 KRIW 230525
TAFWRL
TAF
KWRL 230525Z 2306/2406 VRB05KT P6SM SCT120
     FM231100 31011KT P6SM BKN090
     FM231600 31011G17KT 5SM -SHRASN BKN015 OVC025
     FM231900 32014G22KT P6SM VCSH SCT015 OVC030
     FM240000 32011KT P6SM SCT040 BKN060=

USA.gov is the U.S. government's official web portal to all federal, state and local government web resources and services.